Time;durP1;ratioP1;P1;durP2;ratioP2;P2;SDS_P1;SDS_P2;PMS_P1;PMS_P2;Temp;Humidity;BMP_temperature;BMP_pressure;BME280_temperature;BME280_humidity;BME280_pressure;Samples;Min_cycle;Max_cycle;Signal;HPM_P1;HPM_P2
2022/03/24 05:57:43;;;;;;;14.73;10.90;;;;;;;;;;4883649;29;20107;-80
2022/03/24 06:00:09;;;;;;;;;;;;;;;;;;4912582;29;20091;-82
2022/03/24 06:02:36;;;;;;;16.73;10.65;;;;;;;;;;4914680;29;20355;-81
2022/03/24 06:05:05;;;;;;;19.85;11.75;;;;;;;;;;4914101;29;20052;-82
2022/03/24 06:07:33;;;;;;;16.02;11.52;;;;;;;;;;4913304;29;20052;-82
2022/03/24 06:09:59;;;;;;;15.18;11.13;;;;;;;;;;4912661;29;20052;-81
2022/03/24 06:12:31;;;;;;;15.48;11.50;;;;;;;;;;4919374;29;20488;-80
2022/03/24 06:15:01;;;;;;;18.63;11.85;;;;;;;;;;4913786;29;20079;-82
2022/03/24 06:17:27;;;;;;;14.98;11.38;;;;;;;;;;4913946;29;20449;-82
2022/03/24 06:19:54;;;;;;;15.43;10.45;;;;;;;;;;4915113;29;20540;-81
2022/03/24 06:22:20;;;;;;;17.00;11.45;;;;;;;;;;4913536;29;20076;-82
2022/03/24 06:24:47;;;;;;;16.33;11.00;;;;;;;;;;4914673;29;20040;-80
2022/03/24 06:27:17;;;;;;;17.00;11.27;;;;;;;;;;4914160;29;20056;-80
2022/03/24 06:29:44;;;;;;;17.80;11.40;;;;;;;;;;4914052;29;20443;-80
2022/03/24 06:32:11;;;;;;;17.40;10.82;;;;;;;;;;4913548;29;20044;-81
2022/03/24 06:34:38;;;;;;;16.27;11.05;;;;;;;;;;4914025;29;20410;-81
2022/03/24 06:37:05;;;;;;;15.18;10.57;;;;;;;;;;4913632;29;20178;-81
2022/03/24 06:39:32;;;;;;;16.10;11.07;;;;;;;;;;4914888;29;20048;-83
2022/03/24 06:41:58;;;;;;;15.82;10.73;;;;;;;;;;4914044;29;20064;-81
2022/03/24 06:44:25;;;;;;;16.48;11.50;;;;;;;;;;4913356;29;20059;-81
2022/03/24 06:46:52;;;;;;;18.55;11.43;;;;;;;;;;4914182;29;20103;-82
2022/03/24 06:49:19;;;;;;;14.35;11.02;;;;;;;;;;4913793;29;20501;-82
2022/03/24 06:51:45;;;;;;;14.95;11.38;;;;;;;;;;4913554;29;20520;-83
2022/03/24 06:54:12;;;;;;;15.85;11.25;;;;;;;;;;4913739;29;20048;-82
2022/03/24 06:56:39;;;;;;;17.80;10.55;;;;;;;;;;4913649;29;20056;-83
2022/03/24 06:59:06;;;;;;;19.23;11.75;;;;;;;;;;4913117;29;20056;-82
2022/03/24 07:01:32;;;;;;;16.42;11.00;;;;;;;;;;4913756;29;20051;-82
2022/03/24 07:03:59;;;;;;;16.42;11.05;;;;;;;;;;4914241;29;20048;-81
2022/03/24 07:06:26;;;;;;;13.05;10.35;;;;;;;;;;4913662;29;20048;-82
2022/03/24 07:08:53;;;;;;;16.70;10.98;;;;;;;;;;4913593;29;20047;-82
2022/03/24 07:11:19;;;;;;;18.80;11.38;;;;;;;;;;4913424;29;20048;-82
2022/03/24 07:13:46;;;;;;;15.00;9.85;;;;;;;;;;4903116;29;20051;-82
2022/03/24 07:16:13;;;;;;;13.73;10.68;;;;;;;;;;4912197;29;20095;-82
2022/03/24 07:18:40;;;;;;;16.98;10.52;;;;;;;;;;4914263;29;20070;-82
2022/03/24 07:21:07;;;;;;;15.98;10.32;;;;;;;;;;4912887;29;20048;-82
2022/03/24 07:23:34;;;;;;;16.90;11.00;;;;;;;;;;4913420;29;20072;-81
2022/03/24 07:26:01;;;;;;;17.42;11.00;;;;;;;;;;4913500;29;20084;-82
2022/03/24 07:28:28;;;;;;;14.77;10.25;;;;;;;;;;4912184;29;20040;-82
2022/03/24 07:30:54;;;;;;;13.70;10.38;;;;;;;;;;4913016;29;20068;-83
2022/03/24 07:33:21;;;;;;;17.25;10.15;;;;;;;;;;4912697;29;20051;-82
2022/03/24 07:35:48;;;;;;;17.33;10.93;;;;;;;;;;4911989;29;20532;-83
2022/03/24 07:38:16;;;;;;;15.65;10.02;;;;;;;;;;4911826;29;20051;-82
2022/03/24 07:40:51;;;;;;;19.58;11.10;;;;;;;;;;4911595;29;20055;-83
2022/03/24 07:43:18;;;;;;;12.65;9.95;;;;;;;;;;4912051;29;20060;-83
2022/03/24 07:45:44;;;;;;;15.77;10.10;;;;;;;;;;4912209;29;20096;-82
2022/03/24 07:48:16;;;;;;;12.23;9.65;;;;;;;;;;4911636;29;20432;-81
2022/03/24 07:50:48;;;;;;;14.32;9.85;;;;;;;;;;4912193;29;20048;-82
2022/03/24 07:53:15;;;;;;;15.20;10.60;;;;;;;;;;4911654;29;20509;-83
2022/03/24 07:55:43;;;;;;;15.18;10.60;;;;;;;;;;4912231;29;20048;-82
2022/03/24 07:58:11;;;;;;;12.60;10.13;;;;;;;;;;4911315;29;20103;-82
2022/03/24 08:00:39;;;;;;;12.93;9.73;;;;;;;;;;4912896;29;20449;-82
2022/03/24 08:03:14;;;;;;;15.43;11.05;;;;;;;;;;4911395;29;20056;-82
2022/03/24 08:05:42;;;;;;;15.05;10.55;;;;;;;;;;4912124;29;20469;-82
2022/03/24 08:08:10;;;;;;;17.60;10.52;;;;;;;;;;4911530;29;20052;-83
2022/03/24 08:10:37;;;;;;;16.80;11.23;;;;;;;;;;4912322;29;20520;-83
2022/03/24 08:13:04;;;;;;;14.00;10.63;;;;;;;;;;4909977;29;20481;-80
2022/03/24 08:15:32;;;;;;;18.25;10.50;;;;;;;;;;4912825;29;20055;-82
2022/03/24 08:17:58;;;;;;;17.17;11.27;;;;;;;;;;4914665;29;20075;-82
2022/03/24 08:20:25;;;;;;;15.50;10.82;;;;;;;;;;4914811;29;20472;-81
2022/03/24 08:22:52;;;;;;;13.98;10.95;;;;;;;;;;4915116;29;20080;-81
2022/03/24 08:25:20;;;;;;;16.00;11.27;;;;;;;;;;4915252;29;20080;-82
2022/03/24 08:27:47;;;;;;;15.37;10.67;;;;;;;;;;4915708;29;20048;-81
2022/03/24 08:30:14;;;;;;;19.48;11.73;;;;;;;;;;4915181;29;20068;-80
2022/03/24 08:32:41;;;;;;;15.25;11.38;;;;;;;;;;4915546;29;20127;-81
2022/03/24 08:35:09;;;;;;;15.65;10.75;;;;;;;;;;4913334;29;20955;-81
2022/03/24 08:37:36;;;;;;;15.45;11.32;;;;;;;;;;4915559;29;20048;-81
2022/03/24 08:40:04;;;;;;;13.90;10.55;;;;;;;;;;4914347;29;20052;-81
2022/03/24 08:42:30;;;;;;;16.13;10.17;;;;;;;;;;4914794;29;20066;-81
2022/03/24 08:44:57;;;;;;;20.83;11.60;;;;;;;;;;4914907;29;20099;-81
2022/03/24 08:47:24;;;;;;;15.68;11.20;;;;;;;;;;4914479;29;20082;-81
2022/03/24 08:49:50;;;;;;;17.20;11.30;;;;;;;;;;4915245;29;20576;-81
2022/03/24 08:52:17;;;;;;;16.95;10.82;;;;;;;;;;4914411;29;20453;-81
2022/03/24 08:54:44;;;;;;;15.50;11.68;;;;;;;;;;4915167;29;20072;-81
2022/03/24 08:57:11;;;;;;;14.10;10.80;;;;;;;;;;4914707;29;20660;-80
2022/03/24 08:59:37;;;;;;;14.95;12.10;;;;;;;;;;4914663;29;20052;-81
2022/03/24 09:02:05;;;;;;;15.75;12.38;;;;;;;;;;4914403;29;20103;-79
2022/03/24 09:04:32;;;;;;;15.40;10.93;;;;;;;;;;4914711;29;20052;-81
2022/03/24 09:07:18;;;;;;;20.75;11.60;;;;;;;;;;4900467;29;20485;-80
2022/03/24 09:09:45;;;;;;;15.25;12.40;;;;;;;;;;4915227;29;20052;-80
2022/03/24 09:12:13;;;;;;;15.32;11.75;;;;;;;;;;4914076;29;20044;-80
2022/03/24 09:14:41;;;;;;;14.27;11.52;;;;;;;;;;4914699;29;20413;-80
2022/03/24 09:17:08;;;;;;;18.17;12.52;;;;;;;;;;4913259;29;20048;-79
2022/03/24 09:19:35;;;;;;;19.85;12.35;;;;;;;;;;4913765;29;20371;-79
2022/03/24 09:22:04;;;;;;;18.75;13.45;;;;;;;;;;4914069;29;20059;-80
2022/03/24 09:24:37;;;;;;;16.70;13.00;;;;;;;;;;4913241;29;20044;-80
2022/03/24 09:27:05;;;;;;;18.40;13.15;;;;;;;;;;4912956;29;20048;-81
2022/03/24 09:29:32;;;;;;;19.90;13.10;;;;;;;;;;4911459;29;20505;-80
2022/03/24 09:31:59;;;;;;;19.17;12.95;;;;;;;;;;4914438;29;20112;-79
2022/03/24 09:34:26;;;;;;;22.70;13.57;;;;;;;;;;4913567;29;20044;-80
2022/03/24 09:36:53;;;;;;;18.83;13.23;;;;;;;;;;4913910;29;20432;-81
2022/03/24 09:39:20;;;;;;;21.60;14.63;;;;;;;;;;4913801;29;20044;-79
2022/03/24 09:41:49;;;;;;;17.45;12.52;;;;;;;;;;4914018;29;20055;-80
2022/03/24 09:44:16;;;;;;;16.38;13.23;;;;;;;;;;4913487;29;20044;-81
2022/03/24 09:46:43;;;;;;;16.73;11.40;;;;;;;;;;4913950;29;20048;-81
2022/03/24 09:49:15;;;;;;;14.60;11.85;;;;;;;;;;4898734;29;20143;-81
2022/03/24 09:51:43;;;;;;;14.50;12.50;;;;;;;;;;4914370;29;20052;-81
2022/03/24 09:54:11;;;;;;;14.55;11.05;;;;;;;;;;4913392;29;20072;-82
2022/03/24 09:56:41;;;;;;;14.05;11.20;;;;;;;;;;4912794;29;20044;-83
2022/03/24 09:59:09;;;;;;;15.15;11.35;;;;;;;;;;4907929;29;20056;-82
2022/03/24 10:01:39;;;;;;;16.70;12.38;;;;;;;;;;4907202;29;20048;-83
2022/03/24 10:04:14;;;;;;;15.05;12.25;;;;;;;;;;4908088;29;20048;-83
2022/03/24 10:07:01;;;;;;;18.63;11.02;;;;;;;;;;4909582;29;20055;-84
2022/03/24 10:09:44;;;;;;;15.82;10.50;;;;;;;;;;4907711;29;20051;-82
2022/03/24 10:12:30;;;;;;;13.85;11.77;;;;;;;;;;4908601;29;20079;-82
2022/03/24 10:15:03;;;;;;;14.65;12.05;;;;;;;;;;4908108;29;20056;-83
2022/03/24 10:17:31;;;;;;;17.80;13.00;;;;;;;;;;4907796;29;20600;-83
2022/03/24 10:20:08;;;;;;;17.83;12.20;;;;;;;;;;4908595;29;20052;-83
2022/03/24 10:22:36;;;;;;;10.52;9.15;;;;;;;;;;4908698;29;20060;-83
2022/03/24 10:25:17;;;;;;;7.63;6.35;;;;;;;;;;4908663;29;20052;-82
2022/03/24 10:28:12;;;;;;;7.10;5.32;;;;;;;;;;4908772;29;20060;-82
2022/03/24 10:30:47;;;;;;;7.72;5.47;;;;;;;;;;4907226;29;20044;-82
2022/03/24 10:33:27;;;;;;;8.38;5.30;;;;;;;;;;4896542;29;20513;-82
2022/03/24 10:36:15;;;;;;;7.68;4.90;;;;;;;;;;4907562;29;20131;-83
2022/03/24 10:38:47;;;;;;;9.07;5.00;;;;;;;;;;4908217;29;20055;-83
2022/03/24 10:41:27;;;;;;;8.45;5.07;;;;;;;;;;4908004;29;20048;-83
2022/03/24 10:44:07;;;;;;;7.10;5.32;;;;;;;;;;4908521;29;20052;-83
2022/03/24 10:46:36;;;;;;;9.07;4.80;;;;;;;;;;4907590;29;20072;-82
2022/03/24 10:49:25;;;;;;;6.03;5.05;;;;;;;;;;4910986;29;20058;-82
2022/03/24 10:51:55;;;;;;;9.80;5.40;;;;;;;;;;4911160;29;20048;-81
2022/03/24 10:54:37;;;;;;;10.73;5.00;;;;;;;;;;4909130;29;20104;-81
2022/03/24 10:57:12;;;;;;;6.72;4.82;;;;;;;;;;4911950;29;20056;-81
2022/03/24 10:59:46;;;;;;;6.30;4.57;;;;;;;;;;4907315;29;20072;-82
2022/03/24 11:02:14;;;;;;;9.90;5.32;;;;;;;;;;4906190;29;20048;-83
2022/03/24 11:04:43;;;;;;;7.15;5.10;;;;;;;;;;4907928;29;20055;-82
2022/03/24 11:07:10;;;;;;;6.60;5.18;;;;;;;;;;4906400;29;20059;-82
2022/03/24 11:09:36;;;;;;;8.30;5.43;;;;;;;;;;4908267;29;20099;-83
2022/03/24 11:12:22;;;;;;;7.13;5.20;;;;;;;;;;4907606;29;20091;-82
2022/03/24 11:14:54;;;;;;;10.20;5.78;;;;;;;;;;4906646;29;20052;-82
2022/03/24 11:17:26;;;;;;;7.45;4.97;;;;;;;;;;4907798;29;20040;-82
2022/03/24 11:20:03;;;;;;;8.15;5.43;;;;;;;;;;4901736;29;20052;-82
2022/03/24 11:22:47;;;;;;;8.05;5.10;;;;;;;;;;4903141;29;20607;-82
2022/03/24 11:25:14;;;;;;;5.82;5.22;;;;;;;;;;4906652;29;20135;-81
2022/03/24 11:27:41;;;;;;;10.55;4.82;;;;;;;;;;4909056;29;20048;-81
2022/03/24 11:30:09;;;;;;;9.05;5.65;;;;;;;;;;4907359;29;20055;-82
2022/03/24 11:32:38;;;;;;;8.35;5.57;;;;;;;;;;4907796;29;20504;-84
2022/03/24 11:35:05;;;;;;;;;;;;;;;;;;4891514;29;20162;-80
2022/03/24 11:37:33;;;;;;;5.97;5.28;;;;;;;;;;4906075;29;19986;-83
2022/03/24 11:40:07;;;;;;;9.85;5.97;;;;;;;;;;4905070;29;20060;-83
2022/03/24 11:42:42;;;;;;;6.38;4.72;;;;;;;;;;4890444;29;20461;-83
2022/03/24 11:45:20;;;;;;;9.10;5.55;;;;;;;;;;4906542;29;20060;-83
2022/03/24 11:47:58;;;;;;;10.13;5.90;;;;;;;;;;4906322;29;20364;-82
2022/03/24 11:50:34;;;;;;;6.82;4.97;;;;;;;;;;4906529;29;20060;-83
2022/03/24 11:53:16;;;;;;;7.18;5.10;;;;;;;;;;4908510;29;20134;-83
2022/03/24 11:56:07;;;;;;;9.13;5.85;;;;;;;;;;4909113;29;20232;-82
2022/03/24 11:58:36;;;;;;;7.78;5.25;;;;;;;;;;4911096;29;20052;-82
2022/03/24 12:01:19;;;;;;;7.05;5.25;;;;;;;;;;4910942;29;20402;-82
2022/03/24 12:04:08;;;;;;;9.70;6.20;;;;;;;;;;4924661;29;20060;-81
2022/03/24 12:06:45;;;;;;;9.60;5.47;;;;;;;;;;4912065;29;20143;-82
2022/03/24 12:09:52;;;;;;;9.93;6.00;;;;;;;;;;4911006;29;20121;-82
2022/03/24 12:12:19;;;;;;;6.82;5.25;;;;;;;;;;4910769;29;20051;-82
2022/03/24 12:14:47;;;;;;;7.10;5.70;;;;;;;;;;4911039;29;20132;-82
2022/03/24 12:17:17;;;;;;;7.75;4.97;;;;;;;;;;4909956;29;20138;-82
2022/03/24 12:19:47;;;;;;;5.63;4.35;;;;;;;;;;4911151;29;20059;-82
2022/03/24 12:22:26;;;;;;;8.13;4.40;;;;;;;;;;4910425;29;20111;-82
2022/03/24 12:25:13;;;;;;;7.88;4.22;;;;;;;;;;4914283;29;20547;-82
2022/03/24 12:27:58;;;;;;;5.25;4.60;;;;;;;;;;4910895;29;20048;-82
2022/03/24 12:30:26;;;;;;;9.82;4.35;;;;;;;;;;4909718;29;20497;-82
2022/03/24 12:33:08;;;;;;;7.77;4.17;;;;;;;;;;4910322;29;20444;-82
2022/03/24 12:35:42;;;;;;;7.05;4.93;;;;;;;;;;4910836;29;20060;-83
2022/03/24 12:38:33;;;;;;;6.82;5.07;;;;;;;;;;4909648;29;20087;-80
2022/03/24 12:41:06;;;;;;;10.48;5.72;;;;;;;;;;4905584;29;20048;-81
2022/03/24 12:43:47;;;;;;;8.18;4.90;;;;;;;;;;4914897;29;20489;-83
2022/03/24 12:46:52;;;;;;;7.25;5.53;;;;;;;;;;4899184;29;20107;-83
2022/03/24 12:49:18;;;;;;;7.10;4.50;;;;;;;;;;4898212;29;20047;-83
2022/03/24 12:52:06;;;;;;;9.65;4.90;;;;;;;;;;4916002;29;20426;-82
2022/03/24 12:54:51;;;;;;;7.38;5.07;;;;;;;;;;4911376;29;20052;-81
2022/03/24 12:57:33;;;;;;;8.20;4.57;;;;;;;;;;4909804;29;20099;-81
2022/03/24 13:00:02;;;;;;;8.05;5.18;;;;;;;;;;4914223;29;20052;-81
2022/03/24 13:02:28;;;;;;;;;;;;;;;;;;4913099;29;20055;-82
2022/03/24 13:04:56;;;;;;;8.13;5.25;;;;;;;;;;4909886;29;19923;-81
2022/03/24 13:07:25;;;;;;;7.55;5.90;;;;;;;;;;4914279;29;20071;-82
2022/03/24 13:10:06;;;;;;;7.25;5.35;;;;;;;;;;4914560;29;20129;-81
2022/03/24 13:12:34;;;;;;;8.32;4.88;;;;;;;;;;4913743;29;20119;-81
2022/03/24 13:15:01;;;;;;;6.50;5.05;;;;;;;;;;4913967;29;20056;-80
2022/03/24 13:17:32;;;;;;;7.75;5.05;;;;;;;;;;4913404;29;20573;-81
2022/03/24 13:20:04;;;;;;;7.10;4.75;;;;;;;;;;4913949;29;20044;-80
2022/03/24 13:22:31;;;;;;;7.53;5.53;;;;;;;;;;4913188;29;20055;-79
2022/03/24 13:25:03;;;;;;;6.82;5.40;;;;;;;;;;4914045;29;20044;-81
2022/03/24 13:27:35;;;;;;;8.02;5.65;;;;;;;;;;4913183;29;20504;-80
2022/03/24 13:30:10;;;;;;;7.72;5.40;;;;;;;;;;4913994;29;20052;-81
2022/03/24 13:32:37;;;;;;;6.03;5.38;;;;;;;;;;4913973;29;20436;-82
2022/03/24 13:35:16;;;;;;;8.05;5.43;;;;;;;;;;4914197;29;20465;-82
2022/03/24 13:37:59;;;;;;;8.57;5.35;;;;;;;;;;4913800;29;20084;-81
2022/03/24 13:40:28;;;;;;;7.57;4.90;;;;;;;;;;4913440;29;20413;-80
2022/03/24 13:42:55;;;;;;;7.38;5.50;;;;;;;;;;4913531;29;20185;-81
2022/03/24 13:45:23;;;;;;;9.35;5.88;;;;;;;;;;4913988;29;20123;-81
2022/03/24 13:47:55;;;;;;;8.25;5.50;;;;;;;;;;4913354;29;20044;-81
2022/03/24 13:50:28;;;;;;;10.25;6.20;;;;;;;;;;4913444;29;20051;-81
2022/03/24 13:52:56;;;;;;;10.15;6.20;;;;;;;;;;4913669;29;20104;-81
2022/03/24 13:55:26;;;;;;;7.97;6.18;;;;;;;;;;4913052;29;20121;-80
2022/03/24 13:57:52;;;;;;;8.60;5.93;;;;;;;;;;4912927;29;20048;-80
2022/03/24 14:00:28;;;;;;;9.40;6.80;;;;;;;;;;4912443;29;20044;-81
2022/03/24 14:03:00;;;;;;;7.22;6.30;;;;;;;;;;4913198;29;20114;-81
2022/03/24 14:06:11;;;;;;;8.73;5.88;;;;;;;;;;4913239;29;20131;-81
2022/03/24 14:08:45;;;;;;;8.75;6.45;;;;;;;;;;4836519;29;20535;-80
2022/03/24 14:11:18;;;;;;;7.88;5.63;;;;;;;;;;4834516;29;20576;-80
2022/03/24 14:13:47;;;;;;;7.82;5.65;;;;;;;;;;4836685;29;20049;-80
2022/03/24 14:16:14;;;;;;;8.80;5.90;;;;;;;;;;4835866;29;20056;-80
2022/03/24 14:18:41;;;;;;;8.07;6.22;;;;;;;;;;4852534;29;20054;-81
2022/03/24 14:21:15;;;;;;;9.10;6.80;;;;;;;;;;4836167;29;20996;-81
2022/03/24 14:23:42;;;;;;;6.18;5.35;;;;;;;;;;4836353;29;20050;-82
2022/03/24 14:26:11;;;;;;;8.48;5.78;;;;;;;;;;4836375;29;20104;-81
2022/03/24 14:28:41;;;;;;;;;;;;;;;;;;4836898;29;20053;-81
2022/03/24 14:31:17;;;;;;;10.20;6.10;;;;;;;;;;4835966;29;19983;-80
2022/03/24 14:33:54;;;;;;;9.45;6.32;;;;;;;;;;4837197;29;20057;-81
2022/03/24 14:36:22;;;;;;;8.90;5.82;;;;;;;;;;4836358;29;20085;-81
2022/03/24 14:39:07;;;;;;;7.57;5.60;;;;;;;;;;4836521;29;20061;-81
2022/03/24 14:41:35;;;;;;;9.30;5.45;;;;;;;;;;4843193;29;20507;-81
2022/03/24 14:44:06;;;;;;;11.93;5.70;;;;;;;;;;4913171;29;20536;-81
2022/03/24 14:46:38;;;;;;;9.15;5.20;;;;;;;;;;4913133;29;20059;-80
2022/03/24 14:49:07;;;;;;;8.27;6.25;;;;;;;;;;4912625;29;20111;-81
2022/03/24 14:51:35;;;;;;;9.93;6.25;;;;;;;;;;4913730;29;20047;-80
2022/03/24 14:54:02;;;;;;;14.67;6.07;;;;;;;;;;4912975;29;20135;-80
2022/03/24 14:56:29;;;;;;;11.03;5.90;;;;;;;;;;4911803;29;20071;-81
2022/03/24 14:58:57;;;;;;;8.98;5.40;;;;;;;;;;4912359;29;20284;-81
2022/03/24 15:01:25;;;;;;;7.93;5.78;;;;;;;;;;4912247;29;20060;-81
2022/03/24 15:03:52;;;;;;;8.95;5.00;;;;;;;;;;4913484;29;20055;-81
2022/03/24 15:06:20;;;;;;;7.32;5.10;;;;;;;;;;4911626;29;20123;-81
2022/03/24 15:08:48;;;;;;;9.60;5.57;;;;;;;;;;4912604;29;20092;-80
2022/03/24 15:11:16;;;;;;;11.57;4.93;;;;;;;;;;4910949;29;20458;-81
2022/03/24 15:16:02;;;;;;;10.73;4.68;;;;;;;;;;4911312;29;20044;-81
2022/03/24 15:16:36;;;;;;;6.55;4.88;;;;;;;;;;4911133;29;20052;-80
2022/03/24 15:19:04;;;;;;;5.80;4.22;;;;;;;;;;4911242;29;20472;-80
2022/03/24 15:24:13;;;;;;;6.43;4.53;;;;;;;;;;5010107;23;20058;-82
2022/03/24 15:26:39;;;;;;;7.97;5.22;;;;;;;;;;4952432;28;20137;-82
2022/03/24 15:29:09;;;;;;;13.23;6.10;;;;;;;;;;4954620;28;20110;-81
2022/03/24 15:31:44;;;;;;;13.80;7.10;;;;;;;;;;4955589;28;20094;-81
2022/03/24 15:34:11;;;;;;;7.15;5.55;;;;;;;;;;4954854;28;20126;-81
2022/03/24 15:36:38;;;;;;;13.73;6.65;;;;;;;;;;4957425;28;20055;-81
2022/03/24 15:39:04;;;;;;;14.20;7.03;;;;;;;;;;4953499;28;20040;-81
2022/03/24 15:41:32;;;;;;;11.15;7.00;;;;;;;;;;4954379;28;20054;-81
2022/03/24 15:43:59;;;;;;;9.05;6.05;;;;;;;;;;4954460;28;20050;-82
2022/03/24 15:46:26;;;;;;;10.57;6.15;;;;;;;;;;4954284;28;20059;-81
2022/03/24 15:48:53;;;;;;;11.18;6.22;;;;;;;;;;4956237;28;20526;-80
2022/03/24 15:51:20;;;;;;;9.40;6.20;;;;;;;;;;4954444;28;20051;-80
2022/03/24 15:53:46;;;;;;;9.50;5.55;;;;;;;;;;4954114;28;20120;-82
2022/03/24 15:56:13;;;;;;;10.93;6.43;;;;;;;;;;4953842;28;20452;-81
2022/03/24 15:58:41;;;;;;;11.23;7.15;;;;;;;;;;4955168;28;20054;-81
2022/03/24 16:01:08;;;;;;;12.30;7.53;;;;;;;;;;4955262;28;20055;-80
2022/03/24 16:03:43;;;;;;;10.55;5.90;;;;;;;;;;4956596;28;20504;-81
2022/03/24 16:06:10;;;;;;;11.18;6.28;;;;;;;;;;4955339;28;20047;-81
2022/03/24 16:08:36;;;;;;;9.80;6.40;;;;;;;;;;4955919;28;20508;-82
2022/03/24 16:11:04;;;;;;;10.48;6.15;;;;;;;;;;4955072;28;20090;-81
2022/03/24 16:13:31;;;;;;;11.82;6.32;;;;;;;;;;4965034;28;20044;-82
2022/03/24 16:15:59;;;;;;;8.65;6.05;;;;;;;;;;4953454;28;20055;-81
2022/03/24 16:18:26;;;;;;;;;;;;;;;;;;4940957;28;20465;-81
2022/03/24 16:20:53;;;;;;;11.65;5.65;;;;;;;;;;4951096;28;19949;-82
2022/03/24 16:23:22;;;;;;;9.25;6.05;;;;;;;;;;4953474;28;20058;-82
2022/03/24 16:25:49;;;;;;;8.85;5.47;;;;;;;;;;4955663;28;20109;-83
2022/03/24 16:28:16;;;;;;;11.73;6.10;;;;;;;;;;4938469;28;20622;-80
2022/03/24 16:30:43;;;;;;;12.82;6.55;;;;;;;;;;4957161;28;20047;-81
2022/03/24 16:33:10;;;;;;;9.80;6.03;;;;;;;;;;4953562;28;20070;-81
2022/03/24 16:36:09;;;;;;;10.93;5.80;;;;;;;;;;4954258;28;20402;-81
2022/03/24 16:38:36;;;;;;;9.70;6.22;;;;;;;;;;4947724;28;20058;-80
2022/03/24 16:41:04;;;;;;;15.80;6.70;;;;;;;;;;4950253;28;20102;-80
2022/03/24 16:43:31;;;;;;;10.98;6.50;;;;;;;;;;4946661;28;20501;-81
2022/03/24 16:45:58;;;;;;;8.45;6.63;;;;;;;;;;4951971;28;20106;-81
2022/03/24 16:48:24;;;;;;;11.35;6.55;;;;;;;;;;4952511;28;20043;-81
2022/03/24 16:50:51;;;;;;;8.10;6.15;;;;;;;;;;4950144;28;20129;-81
2022/03/24 16:53:18;;;;;;;9.95;6.95;;;;;;;;;;4950102;28;20051;-80
2022/03/24 16:55:47;;;;;;;9.10;6.05;;;;;;;;;;4950784;28;20039;-82
2022/03/24 16:58:14;;;;;;;10.40;6.43;;;;;;;;;;4951053;28;20047;-79
2022/03/24 17:00:41;;;;;;;11.43;7.15;;;;;;;;;;4953637;28;20741;-80
2022/03/24 17:03:09;;;;;;;7.38;6.47;;;;;;;;;;4949406;28;20538;-81
2022/03/24 17:05:37;;;;;;;11.20;7.13;;;;;;;;;;4950775;28;20533;-81
2022/03/24 17:08:05;;;;;;;11.98;7.43;;;;;;;;;;4950234;28;20518;-80
2022/03/24 17:10:31;;;;;;;11.52;6.65;;;;;;;;;;4947709;28;20583;-80
2022/03/24 17:12:59;;;;;;;14.13;7.50;;;;;;;;;;4954386;28;20106;-81
2022/03/24 17:15:28;;;;;;;12.73;7.00;;;;;;;;;;4950639;28;20576;-80
2022/03/24 17:17:55;;;;;;;9.57;7.13;;;;;;;;;;4951642;28;20051;-80
2022/03/24 17:20:24;;;;;;;12.82;7.80;;;;;;;;;;4949769;28;20480;-81
2022/03/24 17:22:51;;;;;;;13.18;7.28;;;;;;;;;;4954535;28;20043;-80
2022/03/24 17:25:18;;;;;;;10.48;7.22;;;;;;;;;;4961301;28;20043;-81
2022/03/24 17:27:50;;;;;;;10.05;7.50;;;;;;;;;;4951618;28;20134;-82
2022/03/24 17:30:18;;;;;;;11.20;7.80;;;;;;;;;;4951711;28;20061;-80
2022/03/24 17:32:47;;;;;;;10.43;7.30;;;;;;;;;;4955311;28;20063;-81
2022/03/24 17:35:16;;;;;;;11.95;7.45;;;;;;;;;;4963152;28;20464;-81
2022/03/24 17:37:44;;;;;;;;;;;;;;;;;;4948804;28;20101;-80
2022/03/24 17:40:11;;;;;;;14.40;7.50;;;;;;;;;;4944552;23;20467;-80
2022/03/24 17:42:39;;;;;;;13.15;7.78;;;;;;;;;;4937668;28;20098;-81
2022/03/24 17:45:10;;;;;;;12.87;8.00;;;;;;;;;;4944217;28;20859;-81
2022/03/24 17:47:39;;;;;;;14.73;8.27;;;;;;;;;;4942553;28;20054;-80
2022/03/24 17:50:08;;;;;;;13.55;8.23;;;;;;;;;;4942201;28;20044;-81
2022/03/24 17:52:35;;;;;;;14.38;8.15;;;;;;;;;;4945665;28;20106;-82
2022/03/24 17:55:02;;;;;;;11.15;8.35;;;;;;;;;;4931927;28;20044;-83
2022/03/24 17:57:34;;;;;;;14.57;8.88;;;;;;;;;;4932087;29;20420;-81
2022/03/24 18:00:05;;;;;;;14.32;8.57;;;;;;;;;;4933766;28;20102;-81
2022/03/24 18:02:32;;;;;;;15.27;8.15;;;;;;;;;;4933949;29;20126;-82
2022/03/24 18:04:59;;;;;;;12.00;7.90;;;;;;;;;;4928655;28;20048;-82
2022/03/24 18:07:26;;;;;;;12.02;8.35;;;;;;;;;;4929371;28;20050;-82
2022/03/24 18:09:53;;;;;;;15.45;7.55;;;;;;;;;;4936083;28;20106;-83
2022/03/24 18:12:20;;;;;;;18.27;8.68;;;;;;;;;;4930159;28;20172;-81
2022/03/24 18:14:47;;;;;;;15.93;7.93;;;;;;;;;;4932027;29;20051;-81
2022/03/24 18:17:25;;;;;;;14.45;7.93;;;;;;;;;;4935196;28;20047;-82
2022/03/24 18:19:52;;;;;;;13.32;7.55;;;;;;;;;;4924455;29;20143;-82
2022/03/24 18:22:19;;;;;;;14.20;7.75;;;;;;;;;;4933973;28;20044;-82
2022/03/24 18:24:46;;;;;;;13.63;8.07;;;;;;;;;;4942613;28;20051;-82
2022/03/24 18:27:13;;;;;;;14.85;8.32;;;;;;;;;;4928207;28;20107;-83
2022/03/24 18:29:40;;;;;;;25.98;12.75;;;;;;;;;;4931375;28;20111;-82
2022/03/24 18:32:07;;;;;;;22.83;14.88;;;;;;;;;;4930182;28;20056;-83
2022/03/24 18:34:34;;;;;;;23.35;14.82;;;;;;;;;;4934957;28;20047;-82
2022/03/24 18:37:01;;;;;;;23.85;15.18;;;;;;;;;;4935831;28;20039;-81
2022/03/24 18:39:29;;;;;;;25.08;16.05;;;;;;;;;;4927499;28;20107;-80
2022/03/24 18:41:57;;;;;;;;;;;;;;;;;;4925010;28;20452;-81
2022/03/24 18:44:25;;;;;;;33.53;20.17;;;;;;;;;;4920940;28;19957;-80
2022/03/24 18:46:52;;;;;;;34.72;21.08;;;;;;;;;;4921640;28;20580;-80
2022/03/24 18:49:18;;;;;;;34.92;21.38;;;;;;;;;;4924256;28;20056;-81
2022/03/24 18:51:45;;;;;;;32.00;19.98;;;;;;;;;;4925769;28;20058;-78
2022/03/24 18:54:13;;;;;;;36.92;21.45;;;;;;;;;;4923285;28;20122;-79
2022/03/24 18:56:40;;;;;;;38.80;21.67;;;;;;;;;;4926541;28;20153;-80
2022/03/24 18:59:09;;;;;;;32.65;21.38;;;;;;;;;;4924560;28;20951;-81
2022/03/24 19:01:39;;;;;;;;;;;;;;;;;;4924446;28;20082;-80
2022/03/24 19:04:06;;;;;;;39.88;23.98;;;;;;;;;;4924460;28;19960;-81
2022/03/24 19:06:33;;;;;;;46.53;25.38;;;;;;;;;;4927059;28;20051;-81
2022/03/24 19:09:02;;;;;;;41.35;24.30;;;;;;;;;;4925323;28;20079;-85
2022/03/24 19:11:29;;;;;;;39.15;24.73;;;;;;;;;;4920304;28;20051;-82
2022/03/24 19:13:56;;;;;;;44.13;24.95;;;;;;;;;;4925182;28;20070;-81
2022/03/24 19:16:22;;;;;;;41.78;25.15;;;;;;;;;;4926353;28;20103;-83
2022/03/24 19:18:49;;;;;;;45.72;25.05;;;;;;;;;;4928887;28;20051;-80
2022/03/24 19:21:16;;;;;;;44.08;26.13;;;;;;;;;;4924430;28;20047;-83
2022/03/24 19:23:46;;;;;;;48.05;26.30;;;;;;;;;;4924906;28;20185;-84
2022/03/24 19:26:15;;;;;;;58.45;28.45;;;;;;;;;;4925088;28;20413;-83
2022/03/24 19:28:42;;;;;;;54.50;28.13;;;;;;;;;;4924860;28;20047;-82
2022/03/24 19:31:09;;;;;;;57.97;30.92;;;;;;;;;;4924465;28;20099;-83
2022/03/24 19:33:36;;;;;;;53.38;29.52;;;;;;;;;;4928087;28;20428;-82
2022/03/24 19:36:04;;;;;;;52.47;30.65;;;;;;;;;;4927405;28;20121;-82
2022/03/24 19:38:32;;;;;;;52.22;30.42;;;;;;;;;;4922872;28;20047;-82
2022/03/24 19:40:59;;;;;;;51.63;29.83;;;;;;;;;;4923943;28;20122;-81
2022/03/24 19:43:27;;;;;;;60.58;31.40;;;;;;;;;;4922869;28;20058;-82
2022/03/24 19:45:53;;;;;;;46.13;28.55;;;;;;;;;;4926969;28;20068;-80
2022/03/24 19:48:20;;;;;;;45.63;29.08;;;;;;;;;;4924522;28;20078;-82
2022/03/24 19:50:47;;;;;;;51.80;29.58;;;;;;;;;;4927309;28;20469;-82
2022/03/24 19:53:14;;;;;;;47.20;26.80;;;;;;;;;;4922459;28;20047;-81
2022/03/24 19:55:44;;;;;;;43.80;26.40;;;;;;;;;;4923785;28;20060;-81
2022/03/24 19:58:11;;;;;;;40.58;25.00;;;;;;;;;;4923941;28;20048;-82
2022/03/24 20:00:38;;;;;;;45.42;25.52;;;;;;;;;;4925858;29;20076;-81
2022/03/24 20:03:06;;;;;;;47.17;26.55;;;;;;;;;;4923792;28;20075;-79
2022/03/24 20:05:33;;;;;;;43.67;25.70;;;;;;;;;;4914674;28;20428;-83
2022/03/24 20:07:59;;;;;;;48.20;26.42;;;;;;;;;;4925213;28;20432;-81
2022/03/24 20:10:27;;;;;;;40.80;25.42;;;;;;;;;;4922856;28;20070;-81
2022/03/24 20:12:55;;;;;;;43.03;26.23;;;;;;;;;;4927276;28;20051;-83
2022/03/24 20:15:21;;;;;;;50.90;26.45;;;;;;;;;;4929471;28;20043;-83
2022/03/24 20:17:51;;;;;;;44.45;26.35;;;;;;;;;;4926196;28;20099;-81
2022/03/24 20:20:20;;;;;;;48.42;25.85;;;;;;;;;;4925276;28;20058;-81
2022/03/24 20:22:47;;;;;;;50.58;27.60;;;;;;;;;;4929594;28;20075;-83
2022/03/24 20:25:14;;;;;;;54.13;27.70;;;;;;;;;;4927264;28;20044;-83
2022/03/24 20:27:41;;;;;;;51.55;28.30;;;;;;;;;;4922938;28;20060;-81
2022/03/24 20:30:12;;;;;;;51.00;27.52;;;;;;;;;;4926779;28;20141;-82
2022/03/24 20:32:41;;;;;;;56.78;28.73;;;;;;;;;;4928000;28;20465;-81
2022/03/24 20:35:08;;;;;;;57.30;28.98;;;;;;;;;;4920729;28;20056;-81
2022/03/24 20:37:36;;;;;;;55.47;29.05;;;;;;;;;;4911911;29;20107;-80
2022/03/24 20:40:04;;;;;;;50.22;28.65;;;;;;;;;;4922035;28;20048;-80
2022/03/24 20:42:30;;;;;;;54.40;29.23;;;;;;;;;;4917656;28;20051;-81
2022/03/24 20:45:01;;;;;;;54.63;29.52;;;;;;;;;;4921608;28;20110;-81
2022/03/24 20:47:28;;;;;;;52.63;29.20;;;;;;;;;;4928409;28;20075;-82